sensor_id;sensor_type;location;lat;lon;timestamp;P1;durP1;ratioP1;P2;durP2;ratioP2
34876;SDS011;21086;44.780;17.194;2023-12-04T00:01:48;45.65;;;22.17;;
34876;SDS011;21086;44.780;17.194;2023-12-04T00:04:15;42.78;;;22.88;;
34876;SDS011;21086;44.780;17.194;2023-12-04T00:06:42;38.30;;;20.25;;
34876;SDS011;21086;44.780;17.194;2023-12-04T00:09:11;39.80;;;19.85;;
34876;SDS011;21086;44.780;17.194;2023-12-04T00:11:38;44.63;;;21.25;;
34876;SDS011;21086;44.780;17.194;2023-12-04T00:14:05;48.25;;;22.85;;
34876;SDS011;21086;44.780;17.194;2023-12-04T00:16:35;44.20;;;21.75;;
34876;SDS011;21086;44.780;17.194;2023-12-04T00:19:02;45.55;;;22.20;;
34876;SDS011;21086;44.780;17.194;2023-12-04T00:21:29;38.53;;;21.42;;
34876;SDS011;21086;44.780;17.194;2023-12-04T00:23:56;47.08;;;22.55;;
34876;SDS011;21086;44.780;17.194;2023-12-04T00:26:23;40.55;;;20.25;;
34876;SDS011;21086;44.780;17.194;2023-12-04T00:28:50;36.28;;;20.27;;
34876;SDS011;21086;44.780;17.194;2023-12-04T00:31:17;49.00;;;21.67;;
34876;SDS011;21086;44.780;17.194;2023-12-04T00:33:44;39.72;;;20.58;;
34876;SDS011;21086;44.780;17.194;2023-12-04T00:36:11;48.83;;;20.73;;
34876;SDS011;21086;44.780;17.194;2023-12-04T00:38:38;39.83;;;19.13;;
34876;SDS011;21086;44.780;17.194;2023-12-04T00:41:05;42.03;;;19.65;;
34876;SDS011;21086;44.780;17.194;2023-12-04T00:43:32;40.50;;;19.33;;
34876;SDS011;21086;44.780;17.194;2023-12-04T00:45:59;31.80;;;17.80;;
34876;SDS011;21086;44.780;17.194;2023-12-04T00:48:26;40.17;;;19.42;;
34876;SDS011;21086;44.780;17.194;2023-12-04T00:50:54;37.10;;;18.67;;
34876;SDS011;21086;44.780;17.194;2023-12-04T00:53:21;40.35;;;18.70;;
34876;SDS011;21086;44.780;17.194;2023-12-04T00:55:48;36.55;;;17.58;;
34876;SDS011;21086;44.780;17.194;2023-12-04T00:58:15;32.55;;;16.67;;
34876;SDS011;21086;44.780;17.194;2023-12-04T01:00:42;33.22;;;15.63;;
34876;SDS011;21086;44.780;17.194;2023-12-04T01:03:09;33.22;;;16.13;;
34876;SDS011;21086;44.780;17.194;2023-12-04T01:05:36;30.92;;;14.23;;
34876;SDS011;21086;44.780;17.194;2023-12-04T01:08:03;31.33;;;14.95;;
34876;SDS011;21086;44.780;17.194;2023-12-04T01:10:30;33.13;;;14.55;;
34876;SDS011;21086;44.780;17.194;2023-12-04T01:12:57;29.38;;;15.07;;
34876;SDS011;21086;44.780;17.194;2023-12-04T01:15:24;30.17;;;14.70;;
34876;SDS011;21086;44.780;17.194;2023-12-04T01:17:51;30.50;;;14.65;;
34876;SDS011;21086;44.780;17.194;2023-12-04T01:20:18;35.20;;;15.75;;
34876;SDS011;21086;44.780;17.194;2023-12-04T01:22:45;39.47;;;19.08;;
34876;SDS011;21086;44.780;17.194;2023-12-04T01:25:12;40.88;;;18.58;;
34876;SDS011;21086;44.780;17.194;2023-12-04T01:27:39;46.05;;;19.05;;
34876;SDS011;21086;44.780;17.194;2023-12-04T01:30:06;52.67;;;21.35;;
34876;SDS011;21086;44.780;17.194;2023-12-04T01:32:37;51.05;;;21.20;;
34876;SDS011;21086;44.780;17.194;2023-12-04T01:35:04;63.38;;;22.88;;
34876;SDS011;21086;44.780;17.194;2023-12-04T01:37:31;52.42;;;22.83;;
34876;SDS011;21086;44.780;17.194;2023-12-04T01:39:58;43.20;;;19.55;;
34876;SDS011;21086;44.780;17.194;2023-12-04T01:42:25;44.67;;;20.42;;
34876;SDS011;21086;44.780;17.194;2023-12-04T01:44:52;46.58;;;21.17;;
34876;SDS011;21086;44.780;17.194;2023-12-04T01:47:19;53.15;;;24.65;;
34876;SDS011;21086;44.780;17.194;2023-12-04T01:49:47;55.13;;;24.48;;
34876;SDS011;21086;44.780;17.194;2023-12-04T01:52:14;55.10;;;24.30;;
34876;SDS011;21086;44.780;17.194;2023-12-04T01:54:41;45.60;;;21.77;;
34876;SDS011;21086;44.780;17.194;2023-12-04T01:57:09;49.33;;;22.20;;
34876;SDS011;21086;44.780;17.194;2023-12-04T01:59:37;43.72;;;21.77;;
34876;SDS011;21086;44.780;17.194;2023-12-04T02:02:04;42.47;;;21.02;;
34876;SDS011;21086;44.780;17.194;2023-12-04T02:04:31;50.67;;;21.95;;
34876;SDS011;21086;44.780;17.194;2023-12-04T02:06:59;49.05;;;21.27;;
34876;SDS011;21086;44.780;17.194;2023-12-04T02:09:26;44.28;;;20.27;;
34876;SDS011;21086;44.780;17.194;2023-12-04T02:11:53;46.70;;;20.58;;
34876;SDS011;21086;44.780;17.194;2023-12-04T02:14:24;43.47;;;20.10;;
34876;SDS011;21086;44.780;17.194;2023-12-04T02:16:51;37.45;;;18.92;;
34876;SDS011;21086;44.780;17.194;2023-12-04T02:19:19;45.83;;;20.92;;
34876;SDS011;21086;44.780;17.194;2023-12-04T02:21:47;38.53;;;18.63;;
34876;SDS011;21086;44.780;17.194;2023-12-04T02:24:14;36.97;;;19.17;;
34876;SDS011;21086;44.780;17.194;2023-12-04T02:26:47;38.13;;;18.63;;
34876;SDS011;21086;44.780;17.194;2023-12-04T02:32:10;43.25;;;17.52;;
34876;SDS011;21086;44.780;17.194;2023-12-04T02:34:41;36.28;;;17.38;;
34876;SDS011;21086;44.780;17.194;2023-12-04T02:37:10;36.25;;;16.92;;
34876;SDS011;21086;44.780;17.194;2023-12-04T02:39:38;33.78;;;16.45;;
34876;SDS011;21086;44.780;17.194;2023-12-04T02:42:05;34.03;;;16.13;;
34876;SDS011;21086;44.780;17.194;2023-12-04T02:44:32;32.20;;;16.42;;
34876;SDS011;21086;44.780;17.194;2023-12-04T02:46:59;36.40;;;18.25;;
34876;SDS011;21086;44.780;17.194;2023-12-04T02:49:27;41.28;;;19.17;;
34876;SDS011;21086;44.780;17.194;2023-12-04T02:51:54;35.75;;;18.67;;
34876;SDS011;21086;44.780;17.194;2023-12-04T02:54:21;42.35;;;18.60;;
34876;SDS011;21086;44.780;17.194;2023-12-04T02:56:47;34.15;;;18.00;;
34876;SDS011;21086;44.780;17.194;2023-12-04T02:59:14;35.25;;;17.85;;
34876;SDS011;21086;44.780;17.194;2023-12-04T03:01:41;40.78;;;19.05;;
34876;SDS011;21086;44.780;17.194;2023-12-04T03:04:08;41.17;;;19.60;;
34876;SDS011;21086;44.780;17.194;2023-12-04T03:06:35;39.50;;;20.27;;
34876;SDS011;21086;44.780;17.194;2023-12-04T03:09:03;38.67;;;19.67;;
34876;SDS011;21086;44.780;17.194;2023-12-04T03:11:31;45.20;;;21.48;;
34876;SDS011;21086;44.780;17.194;2023-12-04T03:13:59;44.70;;;21.52;;
34876;SDS011;21086;44.780;17.194;2023-12-04T03:16:27;40.42;;;20.17;;
34876;SDS011;21086;44.780;17.194;2023-12-04T03:18:54;45.33;;;21.75;;
34876;SDS011;21086;44.780;17.194;2023-12-04T03:21:21;47.50;;;21.75;;
34876;SDS011;21086;44.780;17.194;2023-12-04T03:23:48;52.33;;;22.02;;
34876;SDS011;21086;44.780;17.194;2023-12-04T03:26:15;42.75;;;20.17;;
34876;SDS011;21086;44.780;17.194;2023-12-04T03:28:42;49.15;;;22.13;;
34876;SDS011;21086;44.780;17.194;2023-12-04T03:31:09;52.35;;;22.23;;
34876;SDS011;21086;44.780;17.194;2023-12-04T03:33:36;50.03;;;22.90;;
34876;SDS011;21086;44.780;17.194;2023-12-04T03:36:03;49.40;;;22.38;;
34876;SDS011;21086;44.780;17.194;2023-12-04T03:38:31;44.85;;;22.10;;
34876;SDS011;21086;44.780;17.194;2023-12-04T03:40:57;43.00;;;20.70;;
34876;SDS011;21086;44.780;17.194;2023-12-04T03:43:24;40.85;;;19.48;;
34876;SDS011;21086;44.780;17.194;2023-12-04T03:45:51;38.85;;;18.83;;
34876;SDS011;21086;44.780;17.194;2023-12-04T03:48:18;54.40;;;21.45;;
34876;SDS011;21086;44.780;17.194;2023-12-04T03:50:45;64.70;;;26.17;;
34876;SDS011;21086;44.780;17.194;2023-12-04T03:53:12;69.47;;;28.77;;
34876;SDS011;21086;44.780;17.194;2023-12-04T03:55:39;57.80;;;23.70;;
34876;SDS011;21086;44.780;17.194;2023-12-04T03:58:06;46.67;;;19.83;;
34876;SDS011;21086;44.780;17.194;2023-12-04T04:00:33;36.85;;;16.15;;
34876;SDS011;21086;44.780;17.194;2023-12-04T04:03:02;31.25;;;15.30;;
34876;SDS011;21086;44.780;17.194;2023-12-04T04:05:29;33.50;;;15.23;;
34876;SDS011;21086;44.780;17.194;2023-12-04T04:07:56;26.63;;;15.05;;
34876;SDS011;21086;44.780;17.194;2023-12-04T04:10:22;26.52;;;14.20;;
34876;SDS011;21086;44.780;17.194;2023-12-04T04:12:50;30.40;;;14.90;;
34876;SDS011;21086;44.780;17.194;2023-12-04T04:15:17;30.52;;;14.32;;
34876;SDS011;21086;44.780;17.194;2023-12-04T04:17:44;33.13;;;15.82;;
34876;SDS011;21086;44.780;17.194;2023-12-04T04:20:11;31.73;;;14.73;;
34876;SDS011;21086;44.780;17.194;2023-12-04T04:22:38;31.88;;;15.73;;
34876;SDS011;21086;44.780;17.194;2023-12-04T04:25:07;33.70;;;17.55;;
34876;SDS011;21086;44.780;17.194;2023-12-04T04:27:35;43.47;;;18.98;;
34876;SDS011;21086;44.780;17.194;2023-12-04T04:30:02;36.25;;;19.90;;
34876;SDS011;21086;44.780;17.194;2023-12-04T04:32:29;43.47;;;20.20;;
34876;SDS011;21086;44.780;17.194;2023-12-04T04:34:56;41.72;;;20.75;;
34876;SDS011;21086;44.780;17.194;2023-12-04T04:37:23;41.20;;;18.63;;
34876;SDS011;21086;44.780;17.194;2023-12-04T04:39:50;36.83;;;18.80;;
34876;SDS011;21086;44.780;17.194;2023-12-04T04:42:17;32.33;;;15.82;;
34876;SDS011;21086;44.780;17.194;2023-12-04T04:44:44;25.45;;;14.00;;
34876;SDS011;21086;44.780;17.194;2023-12-04T04:47:11;29.40;;;14.77;;
34876;SDS011;21086;44.780;17.194;2023-12-04T04:49:38;29.65;;;14.15;;
34876;SDS011;21086;44.780;17.194;2023-12-04T04:52:05;28.27;;;13.40;;
34876;SDS011;21086;44.780;17.194;2023-12-04T04:54:32;31.58;;;14.32;;
34876;SDS011;21086;44.780;17.194;2023-12-04T04:56:59;30.98;;;15.70;;
34876;SDS011;21086;44.780;17.194;2023-12-04T04:59:26;33.92;;;15.63;;
34876;SDS011;21086;44.780;17.194;2023-12-04T05:01:56;28.63;;;14.85;;
34876;SDS011;21086;44.780;17.194;2023-12-04T05:04:23;31.00;;;16.65;;
34876;SDS011;21086;44.780;17.194;2023-12-04T05:06:50;31.88;;;15.95;;
34876;SDS011;21086;44.780;17.194;2023-12-04T05:09:17;27.92;;;14.23;;
34876;SDS011;21086;44.780;17.194;2023-12-04T05:11:44;33.15;;;13.90;;
34876;SDS011;21086;44.780;17.194;2023-12-04T05:14:11;28.02;;;12.55;;
34876;SDS011;21086;44.780;17.194;2023-12-04T05:16:38;27.40;;;12.88;;
34876;SDS011;21086;44.780;17.194;2023-12-04T05:19:05;29.17;;;13.73;;
34876;SDS011;21086;44.780;17.194;2023-12-04T05:21:32;30.08;;;14.75;;
34876;SDS011;21086;44.780;17.194;2023-12-04T05:23:59;42.55;;;19.60;;
34876;SDS011;21086;44.780;17.194;2023-12-04T05:26:26;44.20;;;22.00;;
34876;SDS011;21086;44.780;17.194;2023-12-04T05:28:53;43.95;;;18.92;;
34876;SDS011;21086;44.780;17.194;2023-12-04T05:31:20;45.97;;;20.20;;
34876;SDS011;21086;44.780;17.194;2023-12-04T05:33:47;45.88;;;20.60;;
34876;SDS011;21086;44.780;17.194;2023-12-04T05:36:14;42.08;;;19.83;;
34876;SDS011;21086;44.780;17.194;2023-12-04T05:38:41;38.30;;;20.02;;
34876;SDS011;21086;44.780;17.194;2023-12-04T05:41:08;44.15;;;20.40;;
34876;SDS011;21086;44.780;17.194;2023-12-04T05:43:35;45.03;;;20.27;;
34876;SDS011;21086;44.780;17.194;2023-12-04T05:46:02;42.13;;;18.42;;
34876;SDS011;21086;44.780;17.194;2023-12-04T05:48:29;37.00;;;15.98;;
34876;SDS011;21086;44.780;17.194;2023-12-04T05:50:56;28.48;;;14.70;;
34876;SDS011;21086;44.780;17.194;2023-12-04T05:53:23;34.75;;;14.35;;
34876;SDS011;21086;44.780;17.194;2023-12-04T05:55:49;27.02;;;13.85;;
34876;SDS011;21086;44.780;17.194;2023-12-04T05:58:16;32.40;;;15.63;;
34876;SDS011;21086;44.780;17.194;2023-12-04T06:00:43;49.70;;;22.17;;
34876;SDS011;21086;44.780;17.194;2023-12-04T06:03:10;68.35;;;25.58;;
34876;SDS011;21086;44.780;17.194;2023-12-04T06:05:38;51.67;;;23.08;;
34876;SDS011;21086;44.780;17.194;2023-12-04T06:08:05;48.38;;;24.88;;
34876;SDS011;21086;44.780;17.194;2023-12-04T06:10:32;47.60;;;24.58;;
34876;SDS011;21086;44.780;17.194;2023-12-04T06:13:01;49.85;;;22.83;;
34876;SDS011;21086;44.780;17.194;2023-12-04T06:15:28;51.53;;;24.00;;
34876;SDS011;21086;44.780;17.194;2023-12-04T06:17:55;39.55;;;19.88;;
34876;SDS011;21086;44.780;17.194;2023-12-04T06:20:21;43.50;;;21.42;;
34876;SDS011;21086;44.780;17.194;2023-12-04T06:22:49;43.53;;;21.42;;
34876;SDS011;21086;44.780;17.194;2023-12-04T06:25:16;49.58;;;21.70;;
34876;SDS011;21086;44.780;17.194;2023-12-04T06:27:44;51.58;;;26.50;;
34876;SDS011;21086;44.780;17.194;2023-12-04T06:30:11;48.83;;;25.52;;
34876;SDS011;21086;44.780;17.194;2023-12-04T06:32:39;50.22;;;24.85;;
34876;SDS011;21086;44.780;17.194;2023-12-04T06:35:06;54.78;;;25.52;;
34876;SDS011;21086;44.780;17.194;2023-12-04T06:37:34;65.88;;;28.55;;
34876;SDS011;21086;44.780;17.194;2023-12-04T06:40:02;60.78;;;31.20;;
34876;SDS011;21086;44.780;17.194;2023-12-04T06:42:30;58.13;;;28.23;;
34876;SDS011;21086;44.780;17.194;2023-12-04T06:44:57;60.67;;;27.20;;
34876;SDS011;21086;44.780;17.194;2023-12-04T06:47:24;47.70;;;25.52;;
34876;SDS011;21086;44.780;17.194;2023-12-04T06:49:52;49.28;;;23.73;;
34876;SDS011;21086;44.780;17.194;2023-12-04T06:52:19;59.80;;;24.95;;
34876;SDS011;21086;44.780;17.194;2023-12-04T06:54:46;52.78;;;27.73;;
34876;SDS011;21086;44.780;17.194;2023-12-04T06:57:13;54.60;;;28.02;;
34876;SDS011;21086;44.780;17.194;2023-12-04T06:59:41;58.72;;;26.25;;
34876;SDS011;21086;44.780;17.194;2023-12-04T07:02:08;66.28;;;30.80;;
34876;SDS011;21086;44.780;17.194;2023-12-04T07:04:35;64.50;;;30.75;;
34876;SDS011;21086;44.780;17.194;2023-12-04T07:07:03;61.72;;;31.17;;
34876;SDS011;21086;44.780;17.194;2023-12-04T07:09:33;57.22;;;30.65;;
34876;SDS011;21086;44.780;17.194;2023-12-04T07:12:00;66.88;;;30.88;;
34876;SDS011;21086;44.780;17.194;2023-12-04T07:14:29;61.75;;;26.88;;
34876;SDS011;21086;44.780;17.194;2023-12-04T07:16:56;50.80;;;26.50;;
34876;SDS011;21086;44.780;17.194;2023-12-04T07:19:23;51.80;;;25.20;;
34876;SDS011;21086;44.780;17.194;2023-12-04T07:21:50;56.72;;;26.67;;
34876;SDS011;21086;44.780;17.194;2023-12-04T07:24:17;46.55;;;23.13;;
34876;SDS011;21086;44.780;17.194;2023-12-04T07:26:44;39.65;;;20.48;;
34876;SDS011;21086;44.780;17.194;2023-12-04T07:29:11;41.00;;;19.67;;
34876;SDS011;21086;44.780;17.194;2023-12-04T07:31:38;42.08;;;22.15;;
34876;SDS011;21086;44.780;17.194;2023-12-04T07:34:07;40.45;;;20.00;;
34876;SDS011;21086;44.780;17.194;2023-12-04T07:36:35;33.40;;;14.63;;
34876;SDS011;21086;44.780;17.194;2023-12-04T07:39:02;30.98;;;16.35;;
34876;SDS011;21086;44.780;17.194;2023-12-04T07:41:32;33.15;;;15.15;;
34876;SDS011;21086;44.780;17.194;2023-12-04T07:43:59;35.40;;;17.13;;
34876;SDS011;21086;44.780;17.194;2023-12-04T07:46:26;34.78;;;16.65;;
34876;SDS011;21086;44.780;17.194;2023-12-04T07:48:54;31.60;;;17.23;;
34876;SDS011;21086;44.780;17.194;2023-12-04T07:51:22;46.75;;;24.42;;
34876;SDS011;21086;44.780;17.194;2023-12-04T07:53:49;36.28;;;20.73;;
34876;SDS011;21086;44.780;17.194;2023-12-04T07:56:16;37.95;;;19.15;;
34876;SDS011;21086;44.780;17.194;2023-12-04T07:58:44;36.92;;;19.02;;
34876;SDS011;21086;44.780;17.194;2023-12-04T08:01:15;30.38;;;17.65;;
34876;SDS011;21086;44.780;17.194;2023-12-04T08:03:42;30.05;;;16.38;;
34876;SDS011;21086;44.780;17.194;2023-12-04T08:06:10;37.13;;;18.05;;
34876;SDS011;21086;44.780;17.194;2023-12-04T08:08:40;32.85;;;17.67;;
34876;SDS011;21086;44.780;17.194;2023-12-04T08:11:15;33.60;;;17.38;;
34876;SDS011;21086;44.780;17.194;2023-12-04T08:13:42;36.45;;;17.92;;
34876;SDS011;21086;44.780;17.194;2023-12-04T08:16:13;28.83;;;16.58;;
34876;SDS011;21086;44.780;17.194;2023-12-04T08:18:44;32.90;;;15.93;;
34876;SDS011;21086;44.780;17.194;2023-12-04T08:21:11;24.98;;;14.43;;
34876;SDS011;21086;44.780;17.194;2023-12-04T08:23:39;26.98;;;14.82;;
34876;SDS011;21086;44.780;17.194;2023-12-04T08:26:07;31.48;;;16.35;;
34876;SDS011;21086;44.780;17.194;2023-12-04T08:28:36;23.00;;;13.68;;
34876;SDS011;21086;44.780;17.194;2023-12-04T08:31:08;28.67;;;15.88;;
34876;SDS011;21086;44.780;17.194;2023-12-04T08:33:35;27.95;;;15.40;;
34876;SDS011;21086;44.780;17.194;2023-12-04T08:36:02;23.60;;;13.45;;
34876;SDS011;21086;44.780;17.194;2023-12-04T08:38:30;28.73;;;14.63;;
34876;SDS011;21086;44.780;17.194;2023-12-04T08:40:57;27.50;;;14.77;;
34876;SDS011;21086;44.780;17.194;2023-12-04T08:43:24;26.60;;;13.50;;
34876;SDS011;21086;44.780;17.194;2023-12-04T08:45:51;27.60;;;14.00;;
34876;SDS011;21086;44.780;17.194;2023-12-04T08:48:18;27.42;;;14.00;;
34876;SDS011;21086;44.780;17.194;2023-12-04T08:50:45;22.45;;;13.57;;
34876;SDS011;21086;44.780;17.194;2023-12-04T08:53:12;26.95;;;14.65;;
34876;SDS011;21086;44.780;17.194;2023-12-04T08:55:39;28.98;;;14.30;;
34876;SDS011;21086;44.780;17.194;2023-12-04T08:58:06;34.60;;;15.40;;
34876;SDS011;21086;44.780;17.194;2023-12-04T09:00:33;28.88;;;15.68;;
34876;SDS011;21086;44.780;17.194;2023-12-04T09:03:04;29.08;;;15.80;;
34876;SDS011;21086;44.780;17.194;2023-12-04T09:05:37;29.95;;;15.82;;
34876;SDS011;21086;44.780;17.194;2023-12-04T09:08:05;27.95;;;16.35;;
34876;SDS011;21086;44.780;17.194;2023-12-04T09:10:36;28.35;;;15.73;;
34876;SDS011;21086;44.780;17.194;2023-12-04T09:13:22;32.60;;;14.73;;
34876;SDS011;21086;44.780;17.194;2023-12-04T09:15:49;27.67;;;14.93;;
34876;SDS011;21086;44.780;17.194;2023-12-04T09:18:16;26.73;;;13.55;;
34876;SDS011;21086;44.780;17.194;2023-12-04T09:20:45;20.63;;;12.27;;
34876;SDS011;21086;44.780;17.194;2023-12-04T09:23:12;23.15;;;13.02;;
34876;SDS011;21086;44.780;17.194;2023-12-04T09:25:40;23.95;;;12.80;;
34876;SDS011;21086;44.780;17.194;2023-12-04T09:28:07;20.15;;;12.55;;
34876;SDS011;21086;44.780;17.194;2023-12-04T09:30:35;25.63;;;12.82;;
34876;SDS011;21086;44.780;17.194;2023-12-04T09:33:03;19.33;;;11.10;;
34876;SDS011;21086;44.780;17.194;2023-12-04T09:35:32;22.20;;;12.20;;
34876;SDS011;21086;44.780;17.194;2023-12-04T09:38:00;29.75;;;15.43;;
34876;SDS011;21086;44.780;17.194;2023-12-04T09:40:27;30.02;;;17.02;;
34876;SDS011;21086;44.780;17.194;2023-12-04T09:42:54;27.27;;;17.45;;
34876;SDS011;21086;44.780;17.194;2023-12-04T09:45:21;36.00;;;18.77;;
34876;SDS011;21086;44.780;17.194;2023-12-04T09:47:50;37.22;;;20.80;;
34876;SDS011;21086;44.780;17.194;2023-12-04T09:50:18;34.83;;;20.50;;
34876;SDS011;21086;44.780;17.194;2023-12-04T09:52:51;37.90;;;21.08;;
34876;SDS011;21086;44.780;17.194;2023-12-04T09:55:21;41.70;;;23.58;;
34876;SDS011;21086;44.780;17.194;2023-12-04T09:57:48;46.95;;;23.75;;
34876;SDS011;21086;44.780;17.194;2023-12-04T10:00:17;39.72;;;21.08;;
34876;SDS011;21086;44.780;17.194;2023-12-04T10:02:46;36.83;;;19.90;;
34876;SDS011;21086;44.780;17.194;2023-12-04T10:05:14;36.60;;;20.67;;
34876;SDS011;21086;44.780;17.194;2023-12-04T10:07:41;34.13;;;20.88;;
34876;SDS011;21086;44.780;17.194;2023-12-04T10:10:08;32.63;;;18.98;;
34876;SDS011;21086;44.780;17.194;2023-12-04T10:12:35;33.97;;;20.65;;
34876;SDS011;21086;44.780;17.194;2023-12-04T10:17:32;31.42;;;18.40;;
34876;SDS011;21086;44.780;17.194;2023-12-04T10:20:19;37.97;;;22.33;;
34876;SDS011;21086;44.780;17.194;2023-12-04T10:22:52;36.63;;;22.25;;
34876;SDS011;21086;44.780;17.194;2023-12-04T10:25:20;29.85;;;20.23;;
34876;SDS011;21086;44.780;17.194;2023-12-04T10:27:49;30.10;;;19.92;;
34876;SDS011;21086;44.780;17.194;2023-12-04T10:32:53;27.70;;;17.10;;
34876;SDS011;21086;44.780;17.194;2023-12-04T10:35:21;30.80;;;18.92;;
34876;SDS011;21086;44.780;17.194;2023-12-04T10:37:52;29.00;;;17.45;;
34876;SDS011;21086;44.780;17.194;2023-12-04T10:40:24;29.15;;;16.65;;
34876;SDS011;21086;44.780;17.194;2023-12-04T10:43:38;28.52;;;17.63;;
34876;SDS011;21086;44.780;17.194;2023-12-04T10:45:47;33.60;;;18.92;;
34876;SDS011;21086;44.780;17.194;2023-12-04T10:48:15;30.67;;;18.52;;
34876;SDS011;21086;44.780;17.194;2023-12-04T10:50:45;30.60;;;18.50;;
34876;SDS011;21086;44.780;17.194;2023-12-04T10:53:15;34.45;;;20.65;;
34876;SDS011;21086;44.780;17.194;2023-12-04T10:55:43;31.55;;;18.85;;
34876;SDS011;21086;44.780;17.194;2023-12-04T10:58:13;32.63;;;20.48;;
34876;SDS011;21086;44.780;17.194;2023-12-04T11:00:48;30.17;;;18.35;;
34876;SDS011;21086;44.780;17.194;2023-12-04T11:05:44;23.70;;;16.20;;
34876;SDS011;21086;44.780;17.194;2023-12-04T11:08:16;22.45;;;14.25;;
34876;SDS011;21086;44.780;17.194;2023-12-04T11:11:46;22.90;;;15.20;;
34876;SDS011;21086;44.780;17.194;2023-12-04T11:13:48;19.13;;;13.45;;
34876;SDS011;21086;44.780;17.194;2023-12-04T11:16:38;20.13;;;12.98;;
34876;SDS011;21086;44.780;17.194;2023-12-04T11:22:07;17.80;;;12.00;;
34876;SDS011;21086;44.780;17.194;2023-12-04T11:24:35;20.75;;;14.35;;
34876;SDS011;21086;44.780;17.194;2023-12-04T11:27:03;21.77;;;13.45;;
34876;SDS011;21086;44.780;17.194;2023-12-04T11:29:30;17.52;;;10.88;;
34876;SDS011;21086;44.780;17.194;2023-12-04T11:31:58;21.75;;;11.40;;
34876;SDS011;21086;44.780;17.194;2023-12-04T11:34:26;15.90;;;9.95;;
34876;SDS011;21086;44.780;17.194;2023-12-04T11:36:53;13.25;;;7.25;;
34876;SDS011;21086;44.780;17.194;2023-12-04T11:39:22;14.43;;;8.38;;
34876;SDS011;21086;44.780;17.194;2023-12-04T11:41:52;11.57;;;7.63;;
34876;SDS011;21086;44.780;17.194;2023-12-04T11:44:19;12.30;;;8.55;;
34876;SDS011;21086;44.780;17.194;2023-12-04T11:47:03;19.10;;;10.38;;
34876;SDS011;21086;44.780;17.194;2023-12-04T11:49:32;12.10;;;8.90;;
34876;SDS011;21086;44.780;17.194;2023-12-04T11:52:00;14.05;;;9.88;;
34876;SDS011;21086;44.780;17.194;2023-12-04T11:57:39;15.68;;;9.27;;
34876;SDS011;21086;44.780;17.194;2023-12-04T12:02:47;14.75;;;10.23;;
34876;SDS011;21086;44.780;17.194;2023-12-04T12:05:36;13.38;;;8.73;;
34876;SDS011;21086;44.780;17.194;2023-12-04T12:08:06;16.05;;;9.40;;
34876;SDS011;21086;44.780;17.194;2023-12-04T12:10:34;17.55;;;12.20;;
34876;SDS011;21086;44.780;17.194;2023-12-04T12:13:01;26.67;;;17.10;;
34876;SDS011;21086;44.780;17.194;2023-12-04T12:15:28;23.67;;;16.95;;
34876;SDS011;21086;44.780;17.194;2023-12-04T12:17:56;22.10;;;15.25;;
34876;SDS011;21086;44.780;17.194;2023-12-04T12:20:23;24.35;;;16.88;;
34876;SDS011;21086;44.780;17.194;2023-12-04T12:22:51;24.58;;;15.82;;
34876;SDS011;21086;44.780;17.194;2023-12-04T12:25:19;19.95;;;13.15;;
34876;SDS011;21086;44.780;17.194;2023-12-04T12:27:46;19.70;;;12.52;;
34876;SDS011;21086;44.780;17.194;2023-12-04T12:30:13;21.98;;;13.50;;
34876;SDS011;21086;44.780;17.194;2023-12-04T12:32:40;23.65;;;16.45;;
34876;SDS011;21086;44.780;17.194;2023-12-04T12:35:08;27.17;;;18.17;;
34876;SDS011;21086;44.780;17.194;2023-12-04T12:37:35;26.08;;;16.95;;
34876;SDS011;21086;44.780;17.194;2023-12-04T12:40:03;30.45;;;19.92;;
34876;SDS011;21086;44.780;17.194;2023-12-04T12:42:31;33.80;;;22.13;;
34876;SDS011;21086;44.780;17.194;2023-12-04T12:45:00;27.40;;;17.02;;
34876;SDS011;21086;44.780;17.194;2023-12-04T12:47:30;25.83;;;17.35;;
34876;SDS011;21086;44.780;17.194;2023-12-04T12:49:57;30.27;;;19.90;;
34876;SDS011;21086;44.780;17.194;2023-12-04T12:52:27;31.90;;;19.65;;
34876;SDS011;21086;44.780;17.194;2023-12-04T12:54:54;31.77;;;19.13;;
34876;SDS011;21086;44.780;17.194;2023-12-04T12:57:21;29.23;;;17.15;;
34876;SDS011;21086;44.780;17.194;2023-12-04T12:59:48;29.58;;;17.20;;
34876;SDS011;21086;44.780;17.194;2023-12-04T13:02:15;28.05;;;16.17;;
34876;SDS011;21086;44.780;17.194;2023-12-04T13:04:43;25.20;;;15.32;;
34876;SDS011;21086;44.780;17.194;2023-12-04T13:07:11;31.70;;;16.75;;
34876;SDS011;21086;44.780;17.194;2023-12-04T13:09:38;30.10;;;17.05;;
34876;SDS011;21086;44.780;17.194;2023-12-04T13:12:06;31.55;;;18.15;;
34876;SDS011;21086;44.780;17.194;2023-12-04T13:14:34;33.35;;;18.55;;
34876;SDS011;21086;44.780;17.194;2023-12-04T13:17:02;32.05;;;15.75;;
34876;SDS011;21086;44.780;17.194;2023-12-04T13:19:30;31.73;;;16.45;;
34876;SDS011;21086;44.780;17.194;2023-12-04T13:22:01;39.47;;;19.50;;
34876;SDS011;21086;44.780;17.194;2023-12-04T13:24:30;39.30;;;21.15;;
34876;SDS011;21086;44.780;17.194;2023-12-04T13:26:57;41.28;;;21.30;;
34876;SDS011;21086;44.780;17.194;2023-12-04T13:29:24;57.22;;;28.48;;
34876;SDS011;21086;44.780;17.194;2023-12-04T13:31:51;39.70;;;23.73;;
34876;SDS011;21086;44.780;17.194;2023-12-04T13:34:19;35.97;;;19.55;;
34876;SDS011;21086;44.780;17.194;2023-12-04T13:36:46;39.03;;;20.52;;
34876;SDS011;21086;44.780;17.194;2023-12-04T13:39:13;43.25;;;23.23;;
34876;SDS011;21086;44.780;17.194;2023-12-04T13:41:46;44.15;;;23.15;;
34876;SDS011;21086;44.780;17.194;2023-12-04T13:44:31;56.55;;;28.17;;
34876;SDS011;21086;44.780;17.194;2023-12-04T13:46:59;41.70;;;21.90;;
34876;SDS011;21086;44.780;17.194;2023-12-04T13:49:27;31.77;;;17.48;;
34876;SDS011;21086;44.780;17.194;2023-12-04T13:51:54;30.27;;;15.98;;
34876;SDS011;21086;44.780;17.194;2023-12-04T13:54:21;31.30;;;16.38;;
34876;SDS011;21086;44.780;17.194;2023-12-04T13:56:58;37.78;;;19.05;;
34876;SDS011;21086;44.780;17.194;2023-12-04T13:59:27;39.85;;;20.88;;
34876;SDS011;21086;44.780;17.194;2023-12-04T14:01:55;39.47;;;20.95;;
34876;SDS011;21086;44.780;17.194;2023-12-04T14:04:26;40.63;;;22.58;;
34876;SDS011;21086;44.780;17.194;2023-12-04T14:06:54;39.53;;;21.52;;
34876;SDS011;21086;44.780;17.194;2023-12-04T14:09:26;45.08;;;23.70;;
34876;SDS011;21086;44.780;17.194;2023-12-04T14:11:53;47.42;;;24.58;;
34876;SDS011;21086;44.780;17.194;2023-12-04T14:14:20;50.88;;;27.40;;
34876;SDS011;21086;44.780;17.194;2023-12-04T14:16:47;52.58;;;27.13;;
34876;SDS011;21086;44.780;17.194;2023-12-04T14:19:15;54.03;;;28.95;;
34876;SDS011;21086;44.780;17.194;2023-12-04T14:21:44;50.85;;;28.50;;
34876;SDS011;21086;44.780;17.194;2023-12-04T14:24:11;58.65;;;30.75;;
34876;SDS011;21086;44.780;17.194;2023-12-04T14:26:38;50.45;;;28.63;;
34876;SDS011;21086;44.780;17.194;2023-12-04T14:29:05;56.75;;;31.40;;
34876;SDS011;21086;44.780;17.194;2023-12-04T14:31:34;55.40;;;29.77;;
34876;SDS011;21086;44.780;17.194;2023-12-04T14:34:01;67.05;;;31.70;;